Time;durP1;ratioP1;P1;durP2;ratioP2;P2;SDS_P1;SDS_P2;PMS_P1;PMS_P2;Temp;Humidity;BMP_temperature;BMP_pressure;BME280_temperature;BME280_humidity;BME280_pressure;Samples;Min_cycle;Max_cycle;Signal;HPM_P1;HPM_P2
2022/11/30 00:00:29;;;;;;;132.13;64.73;;;4.40;94.60;;;;;;6215706;23;20179;-89
2022/11/30 00:02:56;;;;;;;137.47;65.30;;;4.40;94.60;;;;;;6215981;23;20158;-89
2022/11/30 00:05:21;;;;;;;121.37;63.33;;;4.40;94.60;;;;;;6217507;23;20197;-89
2022/11/30 00:07:48;;;;;;;127.93;65.07;;;4.40;94.60;;;;;;6215855;23;20156;-89
2022/11/30 00:10:13;;;;;;;133.90;65.47;;;4.40;94.60;;;;;;6215601;23;20679;-89
2022/11/30 00:12:42;;;;;;;121.23;60.40;;;4.40;94.60;;;;;;6217048;23;20151;-89
2022/11/30 00:15:13;;;;;;;133.57;62.33;;;4.40;94.60;;;;;;6217103;23;20224;-90
2022/11/30 00:17:39;;;;;;;142.37;66.03;;;4.40;94.60;;;;;;6217001;23;20136;-89
2022/11/30 00:20:06;;;;;;;125.40;61.55;;;4.40;94.60;;;;;;6217287;23;20502;-89
2022/11/30 00:22:32;;;;;;;130.67;62.70;;;4.40;94.60;;;;;;6217016;23;20158;-89
2022/11/30 00:25:03;;;;;;;132.53;65.20;;;4.40;94.60;;;;;;6215879;23;20491;-90
2022/11/30 00:27:29;;;;;;;129.73;61.87;;;4.40;94.70;;;;;;6217443;23;20671;-90
2022/11/30 00:29:55;;;;;;;128.20;61.67;;;4.40;94.70;;;;;;6215328;23;20175;-90
2022/11/30 00:32:21;;;;;;;132.97;64.77;;;4.30;94.70;;;;;;6215370;23;20158;-89
2022/11/30 00:34:46;;;;;;;134.33;64.53;;;4.30;94.70;;;;;;6215748;23;20238;-89
2022/11/30 00:37:13;;;;;;;129.67;63.23;;;4.40;94.70;;;;;;6216036;23;20159;-89
2022/11/30 00:39:38;;;;;;;136.03;64.33;;;4.40;94.70;;;;;;6216898;23;20645;-89
2022/11/30 00:42:04;;;;;;;131.13;62.93;;;4.30;94.70;;;;;;6215288;23;20186;-89
2022/11/30 00:44:29;;;;;;;135.60;67.60;;;4.40;94.80;;;;;;6214952;23;20617;-89
2022/11/30 00:46:55;;;;;;;144.50;65.07;;;4.30;94.80;;;;;;6215294;23;20200;-90
2022/11/30 00:49:20;;;;;;;135.10;63.93;;;4.40;94.80;;;;;;6216825;23;20168;-89
2022/11/30 00:51:46;;;;;;;143.20;64.93;;;4.30;94.70;;;;;;6217084;23;20152;-89
2022/11/30 00:54:11;;;;;;;142.23;64.43;;;4.40;94.80;;;;;;6216568;23;20277;-89
2022/11/30 00:56:37;;;;;;;149.70;66.45;;;4.40;94.80;;;;;;6215104;23;20234;-89
2022/11/30 00:59:02;;;;;;;144.70;65.20;;;4.30;94.80;;;;;;6216547;23;20247;-89
2022/11/30 01:01:28;;;;;;;135.00;63.47;;;4.40;94.80;;;;;;6216672;23;20249;-90
2022/11/30 01:03:53;;;;;;;142.10;64.70;;;4.40;94.80;;;;;;6216028;23;20175;-90
2022/11/30 01:06:19;;;;;;;139.10;63.30;;;4.40;94.80;;;;;;6215438;23;20351;-89
2022/11/30 01:08:46;;;;;;;140.03;66.03;;;4.40;94.80;;;;;;6215195;23;20190;-90
2022/11/30 01:11:16;;;;;;;131.43;62.63;;;4.40;94.80;;;;;;6189798;23;20151;-90
2022/11/30 01:13:42;;;;;;;142.60;65.53;;;4.40;94.80;;;;;;6190065;23;20159;-90
2022/11/30 01:16:19;;;;;;;132.73;61.80;;;4.40;94.80;;;;;;6190903;23;20167;-89
2022/11/30 01:18:45;;;;;;;136.23;62.03;;;4.30;94.80;;;;;;6190025;23;20182;-89
2022/11/30 01:21:13;;;;;;;139.33;62.03;;;4.30;94.80;;;;;;6189743;23;20638;-89
2022/11/30 01:23:39;;;;;;;146.80;64.53;;;4.30;94.80;;;;;;6189962;23;20166;-89
2022/11/30 01:26:06;;;;;;;137.60;61.90;;;4.30;94.80;;;;;;6216440;23;20179;-89
2022/11/30 01:28:33;;;;;;;134.63;62.57;;;4.30;94.80;;;;;;6189610;23;20176;-89
2022/11/30 01:31:03;;;;;;;156.80;65.23;;;4.40;94.80;;;;;;6190028;23;20162;-90
2022/11/30 01:33:29;;;;;;;151.47;64.40;;;4.40;94.80;;;;;;6189679;23;20154;-90
2022/11/30 01:36:15;;;;;;;148.40;65.53;;;4.30;94.80;;;;;;6189886;23;20166;-90
2022/11/30 01:38:43;;;;;;;149.57;63.53;;;4.30;94.80;;;;;;6216204;23;20186;-90
2022/11/30 01:41:12;;;;;;;157.90;66.93;;;4.30;94.70;;;;;;6216621;23;20263;-90
2022/11/30 01:43:45;;;;;;;149.70;65.40;;;4.30;94.70;;;;;;6189784;23;20613;-89
2022/11/30 01:46:30;;;;;;;148.13;65.73;;;4.40;94.80;;;;;;6189728;23;20173;-89
2022/11/30 01:49:05;;;;;;;155.03;66.23;;;4.40;94.80;;;;;;6216292;23;20694;-90
2022/11/30 01:51:35;;;;;;;148.57;64.90;;;4.30;94.70;;;;;;6189716;23;20180;-90
2022/11/30 01:54:04;;;;;;;156.00;64.93;;;4.30;94.70;;;;;;6216300;23;20257;-90
2022/11/30 01:56:30;;;;;;;143.73;63.37;;;4.30;94.70;;;;;;6189144;23;20163;-90
2022/11/30 01:58:55;;;;;;;151.43;63.20;;;4.40;94.70;;;;;;6216123;23;20175;-90
2022/11/30 02:01:21;;;;;;;165.53;67.83;;;4.40;94.70;;;;;;6189584;23;20180;-90
2022/11/30 02:03:55;;;;;;;152.23;61.77;;;4.30;94.70;;;;;;6216444;23;20147;-90
2022/11/30 02:06:24;;;;;;;140.77;62.20;;;4.30;94.70;;;;;;6216151;23;20134;-89
2022/11/30 02:08:50;;;;;;;154.73;65.20;;;4.30;94.70;;;;;;6190217;23;20634;-90
2022/11/30 02:11:16;;;;;;;148.67;60.90;;;4.30;94.70;;;;;;6214590;23;20152;-89
2022/11/30 02:14:00;;;;;;;154.17;64.70;;;4.30;94.70;;;;;;6214554;23;20197;-90
2022/11/30 02:16:47;;;;;;;148.00;63.03;;;4.40;94.70;;;;;;6214721;23;20165;-89
2022/11/30 02:19:12;;;;;;;152.03;61.93;;;4.30;94.70;;;;;;6215948;23;20753;-90
2022/11/30 02:21:57;;;;;;;143.90;62.37;;;4.30;94.70;;;;;;6214280;23;20178;-90
2022/11/30 02:24:36;;;;;;;149.70;61.63;;;4.30;94.60;;;;;;6214613;23;20148;-89
2022/11/30 02:27:26;;;;;;;153.17;64.70;;;4.40;94.70;;;;;;6214336;23;20224;-90
2022/11/30 02:30:03;;;;;;;151.07;61.80;;;4.30;94.70;;;;;;6214321;23;20222;-90
2022/11/30 02:32:34;;;;;;;141.55;62.10;;;4.30;94.60;;;;;;6214516;23;20226;-90
2022/11/30 02:35:02;;;;;;;148.37;61.10;;;4.30;94.60;;;;;;6215892;23;20190;-89
2022/11/30 02:37:29;;;;;;;142.20;65.80;;;4.30;94.70;;;;;;6215700;23;20604;-90
2022/11/30 02:39:54;;;;;;;147.40;61.70;;;4.30;94.60;;;;;;6214367;23;20187;-90
2022/11/30 02:42:20;;;;;;;156.50;65.30;;;4.30;94.60;;;;;;6215725;23;20227;-89
2022/11/30 02:44:51;;;;;;;156.23;60.67;;;4.40;94.60;;;;;;6214260;23;20155;-89
2022/11/30 02:47:33;;;;;;;157.83;65.47;;;4.30;94.60;;;;;;6214231;23;20150;-90
2022/11/30 02:50:21;;;;;;;152.13;62.37;;;4.30;94.60;;;;;;6214531;23;20194;-89
2022/11/30 02:52:49;;;;;;;144.00;60.10;;;4.30;94.50;;;;;;6214288;23;20150;-90
2022/11/30 02:55:18;;;;;;;150.50;61.30;;;4.30;94.60;;;;;;6214056;23;20161;-90
2022/11/30 02:57:43;;;;;;;150.53;62.70;;;4.30;94.50;;;;;;6214255;23;20262;-90
2022/11/30 03:00:10;;;;;;;142.27;61.70;;;4.30;94.50;;;;;;6214529;23;20632;-90
2022/11/30 03:02:37;;;;;;;150.50;62.85;;;4.30;94.50;;;;;;6214061;23;20146;-90
2022/11/30 03:05:03;;;;;;;153.27;64.60;;;4.40;94.50;;;;;;6214121;23;20209;-89
2022/11/30 03:07:29;;;;;;;149.77;64.10;;;4.40;94.60;;;;;;6215540;23;20189;-90
2022/11/30 03:09:55;;;;;;;145.80;63.87;;;4.40;94.50;;;;;;6216499;23;20191;-90
2022/11/30 03:12:20;;;;;;;145.13;64.40;;;4.30;94.50;;;;;;6216298;23;20209;-90
2022/11/30 03:14:46;;;;;;;139.10;64.73;;;4.30;94.50;;;;;;6218380;23;20151;-90
2022/11/30 03:17:11;;;;;;;143.03;63.30;;;4.30;94.50;;;;;;6216879;23;20598;-90
2022/11/30 03:19:37;;;;;;;144.40;65.53;;;4.30;94.50;;;;;;6218030;23;20237;-89
2022/11/30 03:22:03;;;;;;;152.87;66.37;;;4.30;94.50;;;;;;6216049;23;20179;-89
2022/11/30 03:24:28;;;;;;;152.43;65.53;;;4.30;94.50;;;;;;6218015;23;20217;-90
2022/11/30 03:26:54;;;;;;;156.33;66.87;;;4.30;94.50;;;;;;6216212;23;20166;-90
2022/11/30 03:29:20;;;;;;;151.53;65.53;;;4.40;94.60;;;;;;6217808;23;20182;-90
2022/11/30 03:31:45;;;;;;;145.97;64.10;;;4.30;94.50;;;;;;6216210;23;20626;-89
2022/11/30 03:34:11;;;;;;;149.60;64.87;;;4.30;94.50;;;;;;6216012;23;20632;-90
2022/11/30 03:36:36;;;;;;;140.67;65.63;;;4.40;94.50;;;;;;6217552;23;20493;-90
2022/11/30 03:39:02;;;;;;;146.63;65.67;;;4.30;94.50;;;;;;6215886;23;20646;-90
2022/11/30 03:41:28;;;;;;;156.57;65.40;;;4.30;94.50;;;;;;6215905;23;20511;-90
2022/11/30 03:43:54;;;;;;;150.43;64.43;;;4.30;94.50;;;;;;6216228;23;20162;-90
2022/11/30 03:46:20;;;;;;;150.73;65.23;;;4.40;94.50;;;;;;6215854;23;20194;-90
2022/11/30 03:48:46;;;;;;;157.70;67.17;;;4.30;94.50;;;;;;6215752;23;20176;-90
2022/11/30 03:51:12;;;;;;;147.80;64.00;;;4.30;94.50;;;;;;6217468;23;20151;-90
2022/11/30 03:53:38;;;;;;;145.60;63.13;;;4.30;94.50;;;;;;6215743;23;20191;-89
2022/11/30 03:56:06;;;;;;;145.63;62.77;;;4.40;94.50;;;;;;6217404;23;20183;-90
2022/11/30 03:58:32;;;;;;;139.67;63.73;;;4.30;94.50;;;;;;6215822;23;20643;-89
2022/11/30 04:01:07;;;;;;;139.40;63.40;;;4.40;94.50;;;;;;6215758;23;20633;-90
2022/11/30 04:03:33;;;;;;;135.10;60.43;;;4.40;94.50;;;;;;6216539;23;20158;-90
2022/11/30 04:05:59;;;;;;;138.67;63.00;;;4.40;94.50;;;;;;6215557;23;20124;-90
2022/11/30 04:08:26;;;;;;;147.97;64.63;;;4.40;94.50;;;;;;6215647;23;20183;-90
2022/11/30 04:10:53;;;;;;;144.87;63.20;;;4.40;94.50;;;;;;6217496;23;20184;-89
2022/11/30 04:13:20;;;;;;;146.43;63.87;;;4.40;94.50;;;;;;6191125;23;20162;-89
2022/11/30 04:15:47;;;;;;;138.47;60.63;;;4.30;94.50;;;;;;6190199;23;20641;-89
2022/11/30 04:18:13;;;;;;;137.07;60.23;;;4.30;94.50;;;;;;6216951;23;20313;-90
2022/11/30 04:20:39;;;;;;;155.00;64.57;;;4.30;94.50;;;;;;6190360;23;20689;-90
2022/11/30 04:23:05;;;;;;;145.70;62.83;;;4.40;94.50;;;;;;6216978;23;20175;-90
2022/11/30 04:25:30;;;;;;;148.13;64.13;;;4.30;94.50;;;;;;6190456;23;20527;-90
2022/11/30 04:27:56;;;;;;;146.13;60.17;;;4.40;94.50;;;;;;6216798;23;20148;-90
2022/11/30 04:30:22;;;;;;;156.27;59.90;;;4.40;94.50;;;;;;6190439;23;20481;-89
2022/11/30 04:32:47;;;;;;;147.97;61.33;;;4.40;94.50;;;;;;6216847;23;20228;-90
2022/11/30 04:35:13;;;;;;;146.07;62.73;;;4.30;94.50;;;;;;6190318;23;20156;-90
2022/11/30 04:37:38;;;;;;;149.23;64.47;;;4.30;94.50;;;;;;6190375;23;20160;-90
2022/11/30 04:40:05;;;;;;;138.87;58.17;;;4.40;94.60;;;;;;6190334;23;20236;-90
2022/11/30 04:42:31;;;;;;;143.67;61.20;;;4.40;94.60;;;;;;6190232;23;20221;-89
2022/11/30 04:44:56;;;;;;;148.47;62.23;;;4.40;94.60;;;;;;6216933;23;20148;-90
2022/11/30 04:47:22;;;;;;;145.57;60.87;;;4.40;94.60;;;;;;6190209;23;20162;-90
2022/11/30 04:49:47;;;;;;;145.97;58.87;;;4.30;94.60;;;;;;6216710;23;20170;-89
2022/11/30 04:52:13;;;;;;;152.30;63.60;;;4.40;94.60;;;;;;6190815;23;20581;-89
2022/11/30 04:54:38;;;;;;;164.40;61.30;;;4.40;94.60;;;;;;6216656;23;20183;-89
2022/11/30 04:57:05;;;;;;;145.63;61.13;;;4.40;94.60;;;;;;6216616;23;20155;-90
2022/11/30 04:59:31;;;;;;;141.73;63.07;;;4.30;94.60;;;;;;6216436;23;20179;-89
2022/11/30 05:01:56;;;;;;;159.27;64.47;;;4.30;94.60;;;;;;6189910;23;20187;-89
2022/11/30 05:04:22;;;;;;;150.50;61.30;;;4.40;94.70;;;;;;6189992;23;20595;-89
2022/11/30 05:06:47;;;;;;;158.00;63.13;;;4.30;94.70;;;;;;6216574;23;20151;-90
2022/11/30 05:09:13;;;;;;;154.67;62.53;;;4.40;94.70;;;;;;6195384;23;20194;-90
2022/11/30 05:11:38;;;;;;;168.23;60.83;;;4.30;94.70;;;;;;6215094;23;20159;-90
2022/11/30 05:14:04;;;;;;;164.07;63.40;;;4.30;94.70;;;;;;6216494;23;20154;-89
2022/11/30 05:16:29;;;;;;;169.17;63.20;;;4.30;94.70;;;;;;6216572;23;20168;-90
2022/11/30 05:18:55;;;;;;;159.40;63.40;;;4.30;94.70;;;;;;6216401;23;20196;-89
2022/11/30 05:21:20;;;;;;;171.63;63.73;;;4.30;94.70;;;;;;6214747;23;20183;-90
2022/11/30 05:23:47;;;;;;;161.53;64.03;;;4.30;94.70;;;;;;6214849;23;20490;-90
2022/11/30 05:26:13;;;;;;;166.13;62.93;;;4.30;94.80;;;;;;6214910;23;20181;-89
2022/11/30 05:28:39;;;;;;;171.80;63.57;;;4.30;94.80;;;;;;6215174;23;20262;-89
2022/11/30 05:31:04;;;;;;;175.70;68.03;;;4.30;94.80;;;;;;6215662;23;20531;-90
2022/11/30 05:33:31;;;;;;;164.43;63.73;;;4.30;94.80;;;;;;6216250;23;20159;-89
2022/11/30 05:35:57;;;;;;;178.20;65.20;;;4.30;94.90;;;;;;6216167;23;20150;-89
2022/11/30 05:38:22;;;;;;;184.87;67.43;;;4.30;94.90;;;;;;6214737;23;20182;-89
2022/11/30 05:40:48;;;;;;;174.57;64.20;;;4.30;94.90;;;;;;6214681;23;20237;-90
2022/11/30 05:43:13;;;;;;;174.47;62.87;;;4.30;94.90;;;;;;6216481;23;20151;-89
2022/11/30 05:45:39;;;;;;;188.70;68.80;;;4.30;94.90;;;;;;6214643;23;20152;-90
2022/11/30 05:48:05;;;;;;;171.57;60.67;;;4.30;94.90;;;;;;6214497;23;20258;-90
2022/11/30 05:50:31;;;;;;;190.73;66.87;;;4.30;95.00;;;;;;6216965;23;20232;-89
2022/11/30 05:52:59;;;;;;;202.83;66.40;;;4.30;95.00;;;;;;6214632;23;20159;-90
2022/11/30 05:55:25;;;;;;;182.80;66.23;;;4.30;95.00;;;;;;6214667;23;20240;-90
2022/11/30 05:57:51;;;;;;;182.87;64.83;;;4.30;95.00;;;;;;6215944;23;20179;-89
2022/11/30 06:00:17;;;;;;;199.20;66.03;;;4.30;95.10;;;;;;6214420;23;20504;-89
2022/11/30 06:02:43;;;;;;;197.30;67.93;;;4.30;95.10;;;;;;6214409;23;20202;-89
2022/11/30 06:05:08;;;;;;;208.57;69.47;;;4.30;95.10;;;;;;6215990;23;20147;-90
2022/11/30 06:07:34;;;;;;;188.33;64.60;;;4.30;95.10;;;;;;6215988;23;20197;-89
2022/11/30 06:09:59;;;;;;;204.33;69.37;;;4.30;95.20;;;;;;6215726;23;20184;-89
2022/11/30 06:12:25;;;;;;;196.67;68.97;;;4.30;95.20;;;;;;6189371;23;20153;-89
2022/11/30 06:14:51;;;;;;;202.07;69.57;;;4.30;95.20;;;;;;6189412;23;20194;-90
2022/11/30 06:17:16;;;;;;;196.17;69.03;;;4.30;95.20;;;;;;6189370;23;20156;-90
2022/11/30 06:19:42;;;;;;;209.50;70.07;;;4.30;95.20;;;;;;6189141;23;20171;-89
2022/11/30 06:22:08;;;;;;;214.70;71.20;;;4.30;95.20;;;;;;6189332;23;20192;-90
2022/11/30 06:24:33;;;;;;;206.57;70.83;;;4.30;95.30;;;;;;6215942;23;20487;-90
2022/11/30 06:26:59;;;;;;;216.00;69.80;;;4.30;95.30;;;;;;6189270;23;20148;-89
2022/11/30 06:29:24;;;;;;;212.90;68.63;;;4.30;95.30;;;;;;6189181;23;20177;-89
2022/11/30 06:31:50;;;;;;;204.00;67.03;;;4.30;95.30;;;;;;6189353;23;20241;-89
2022/11/30 06:34:15;;;;;;;202.33;70.07;;;4.20;95.30;;;;;;6216436;23;20150;-89
2022/11/30 06:36:41;;;;;;;204.83;70.23;;;4.30;95.30;;;;;;6189228;23;20608;-89
2022/11/30 06:39:08;;;;;;;214.93;70.90;;;4.30;95.30;;;;;;6189342;23;20179;-89
2022/11/30 06:41:33;;;;;;;191.97;67.63;;;4.30;95.30;;;;;;6188718;23;20183;-89
2022/11/30 06:43:59;;;;;;;204.37;67.47;;;4.30;95.30;;;;;;6189288;23;20162;-89
2022/11/30 06:46:25;;;;;;;213.97;71.83;;;4.20;95.40;;;;;;6189070;23;20162;-89
2022/11/30 06:48:51;;;;;;;218.20;71.70;;;4.30;95.40;;;;;;6215994;23;20174;-89
2022/11/30 06:51:18;;;;;;;218.27;73.03;;;4.30;95.40;;;;;;6189240;23;20162;-89
2022/11/30 06:53:44;;;;;;;210.97;70.53;;;4.30;95.40;;;;;;6188981;23;20237;-89
2022/11/30 06:56:11;;;;;;;210.60;71.10;;;4.20;95.40;;;;;;6215642;23;20275;-90
2022/11/30 06:58:38;;;;;;;192.97;69.23;;;4.30;95.40;;;;;;6215558;23;20172;-90
2022/11/30 07:01:05;;;;;;;211.90;72.17;;;4.30;95.40;;;;;;6188985;23;20187;-89
2022/11/30 07:03:32;;;;;;;201.23;67.80;;;4.20;95.40;;;;;;6189610;23;20197;-89
2022/11/30 07:05:57;;;;;;;206.13;68.20;;;4.30;95.40;;;;;;6189029;23;20600;-89
2022/11/30 07:08:23;;;;;;;192.43;70.30;;;4.20;95.40;;;;;;6188948;23;20187;-89
2022/11/30 07:10:49;;;;;;;197.17;69.87;;;4.20;95.40;;;;;;6188994;23;20175;-90
2022/11/30 07:13:17;;;;;;;194.70;68.33;;;4.30;95.40;;;;;;6188898;23;20605;-89
2022/11/30 07:15:43;;;;;;;210.00;66.87;;;4.20;95.40;;;;;;6189847;23;20162;-89
2022/11/30 07:18:09;;;;;;;214.33;70.40;;;4.20;95.40;;;;;;6188783;23;20218;-89
2022/11/30 07:20:36;;;;;;;202.70;69.83;;;4.30;95.50;;;;;;6215298;23;20176;-90
2022/11/30 07:26:05;;;;;;;211.67;74.00;;;4.30;95.50;;;;;;6189000;23;20164;-89
2022/11/30 07:26:05;;;;;;;186.90;66.20;;;4.30;95.50;;;;;;6215604;23;20181;-89
2022/11/30 07:28:31;;;;;;;202.27;72.07;;;4.20;95.50;;;;;;6188938;23;20645;-90
2022/11/30 07:30:56;;;;;;;203.70;69.87;;;4.30;95.50;;;;;;6189224;23;20159;-89
2022/11/30 07:33:22;;;;;;;190.47;66.53;;;4.30;95.50;;;;;;6215436;23;20499;-89
2022/11/30 07:35:47;;;;;;;181.67;68.60;;;4.30;95.50;;;;;;6215948;23;20155;-89
2022/11/30 07:38:13;;;;;;;187.80;69.93;;;4.20;95.50;;;;;;6215451;23;20489;-89
2022/11/30 07:40:39;;;;;;;185.87;70.60;;;4.30;95.50;;;;;;6215496;23;20176;-88
2022/11/30 07:43:04;;;;;;;191.90;70.03;;;4.30;95.50;;;;;;6216385;23;20572;-89
2022/11/30 07:45:30;;;;;;;189.57;67.90;;;4.30;95.50;;;;;;6215738;23;20151;-89
2022/11/30 07:47:57;;;;;;;187.23;65.40;;;4.30;95.50;;;;;;6188674;23;20152;-89
2022/11/30 07:50:23;;;;;;;193.40;66.00;;;4.20;95.40;;;;;;6189331;23;20167;-89
2022/11/30 07:52:49;;;;;;;196.83;70.50;;;4.30;95.40;;;;;;6188856;23;20159;-89
2022/11/30 07:55:14;;;;;;;188.30;68.70;;;4.30;95.40;;;;;;6217085;23;20155;-89
2022/11/30 07:57:40;;;;;;;177.23;65.73;;;4.30;95.40;;;;;;6190568;23;20160;-89
2022/11/30 08:00:08;;;;;;;198.20;67.73;;;4.30;95.40;;;;;;6217116;23;20150;-89
2022/11/30 08:02:33;;;;;;;190.00;67.03;;;4.30;95.40;;;;;;6166158;23;20504;-89
2022/11/30 08:04:59;;;;;;;191.90;70.53;;;4.30;95.40;;;;;;6217748;23;20157;-89
2022/11/30 08:07:24;;;;;;;175.80;66.33;;;4.30;95.40;;;;;;6190536;23;20157;-89
2022/11/30 08:09:50;;;;;;;193.20;68.07;;;4.30;95.40;;;;;;6217164;23;20284;-89
2022/11/30 08:12:16;;;;;;;179.17;68.67;;;4.30;95.40;;;;;;6217510;23;20183;-90
2022/11/30 08:14:41;;;;;;;192.93;69.70;;;4.30;95.30;;;;;;6217122;23;20204;-89
2022/11/30 08:17:08;;;;;;;184.53;69.13;;;4.30;95.30;;;;;;6190522;23;20195;-89
2022/11/30 08:19:33;;;;;;;194.10;67.30;;;4.30;95.30;;;;;;6190395;23;20177;-89
2022/11/30 08:21:59;;;;;;;188.20;69.37;;;4.30;95.30;;;;;;6216868;23;20272;-89
2022/11/30 08:24:24;;;;;;;193.43;70.33;;;4.30;95.30;;;;;;6216948;23;20155;-89
2022/11/30 08:26:51;;;;;;;189.40;68.37;;;4.30;95.30;;;;;;6217057;23;20473;-89
2022/11/30 08:29:17;;;;;;;197.73;67.43;;;4.30;95.30;;;;;;6217139;23;20642;-89
2022/11/30 08:31:42;;;;;;;184.50;68.00;;;4.30;95.30;;;;;;6190438;23;20165;-89
2022/11/30 08:34:12;;;;;;;186.70;66.57;;;4.30;95.20;;;;;;6190407;23;20152;-89
2022/11/30 08:36:39;;;;;;;191.00;70.07;;;4.30;95.20;;;;;;6216899;23;20150;-90
2022/11/30 08:39:07;;;;;;;189.40;66.90;;;4.30;95.20;;;;;;6190278;23;20232;-89
2022/11/30 08:41:33;;;;;;;185.97;66.57;;;4.30;95.20;;;;;;6190203;23;20265;-89
2022/11/30 08:44:00;;;;;;;193.83;67.33;;;4.30;95.20;;;;;;6216802;23;20154;-89
2022/11/30 08:46:26;;;;;;;189.43;70.33;;;4.40;95.20;;;;;;6217312;23;20151;-89
2022/11/30 08:48:52;;;;;;;174.97;65.57;;;4.40;95.20;;;;;;6191972;23;20174;-89
2022/11/30 08:51:19;;;;;;;203.47;69.73;;;4.40;95.20;;;;;;6190220;23;20253;-89
2022/11/30 08:53:46;;;;;;;195.87;71.23;;;4.30;95.20;;;;;;6217397;23;20209;-91
2022/11/30 08:56:17;;;;;;;197.33;69.47;;;4.40;95.20;;;;;;6191869;23;20161;-88
2022/11/30 08:58:43;;;;;;;185.13;65.90;;;4.40;95.20;;;;;;6217454;23;20193;-88
2022/11/30 09:01:10;;;;;;;184.93;67.87;;;4.30;95.10;;;;;;6190532;23;20631;-89
2022/11/30 09:03:36;;;;;;;193.03;66.60;;;4.40;95.10;;;;;;6190310;23;20155;-88
2022/11/30 09:06:04;;;;;;;188.30;68.10;;;4.40;95.10;;;;;;6190250;23;20182;-89
2022/11/30 09:08:30;;;;;;;181.13;69.17;;;4.40;95.10;;;;;;6189856;23;20205;-89
2022/11/30 09:10:56;;;;;;;169.37;63.53;;;4.40;95.10;;;;;;6216660;23;20587;-89
2022/11/30 09:13:22;;;;;;;187.10;66.63;;;4.40;95.10;;;;;;6216562;23;20165;-89
2022/11/30 09:15:54;;;;;;;183.93;69.40;;;4.40;95.10;;;;;;6216582;23;20185;-89
2022/11/30 09:18:20;;;;;;;177.80;67.43;;;4.40;95.10;;;;;;6189886;23;20181;-89
2022/11/30 09:20:45;;;;;;;186.33;64.23;;;4.40;95.10;;;;;;6189821;23;20277;-89
2022/11/30 09:23:11;;;;;;;180.93;66.80;;;4.40;95.00;;;;;;6216785;23;20238;-89
2022/11/30 09:25:36;;;;;;;178.27;67.30;;;4.50;95.00;;;;;;6189919;23;20159;-89
2022/11/30 09:28:02;;;;;;;196.57;67.90;;;4.40;95.00;;;;;;6216369;23;20171;-89
2022/11/30 09:30:28;;;;;;;193.57;67.20;;;4.50;95.00;;;;;;6216377;23;20155;-89
2022/11/30 09:32:53;;;;;;;202.23;67.67;;;4.50;95.00;;;;;;6216278;23;20182;-89
2022/11/30 09:35:19;;;;;;;188.17;69.27;;;4.50;95.00;;;;;;6189969;23;20156;-89
2022/11/30 09:37:44;;;;;;;187.77;66.67;;;4.50;95.00;;;;;;6190695;23;20186;-88
2022/11/30 09:40:12;;;;;;;203.73;71.13;;;4.50;95.00;;;;;;6216244;23;20195;-89
2022/11/30 09:42:52;;;;;;;186.90;68.37;;;4.60;95.00;;;;;;6216470;23;20151;-89
2022/11/30 09:45:23;;;;;;;199.70;68.97;;;4.60;95.00;;;;;;6189612;23;20479;-89
2022/11/30 09:48:04;;;;;;;192.97;67.67;;;4.50;94.90;;;;;;6190626;23;20169;-89
2022/11/30 09:50:36;;;;;;;176.50;66.97;;;4.60;94.90;;;;;;6189687;23;20214;-89
2022/11/30 09:53:08;;;;;;;189.93;69.80;;;4.50;94.90;;;;;;6216383;23;20152;-90
2022/11/30 09:55:41;;;;;;;179.00;68.77;;;4.60;94.80;;;;;;6190798;23;20144;-89
2022/11/30 09:58:21;;;;;;;175.43;67.27;;;4.60;94.80;;;;;;6189853;23;20261;-89
2022/11/30 10:00:46;;;;;;;173.97;66.73;;;4.60;94.80;;;;;;6190012;23;20179;-89
2022/11/30 10:03:12;;;;;;;176.40;69.37;;;4.60;94.80;;;;;;6217292;23;20448;-92
2022/11/30 10:05:58;;;;;;;167.23;66.37;;;4.60;94.70;;;;;;6190071;23;20259;-91
2022/11/30 10:08:29;;;;;;;168.63;63.10;;;4.60;94.70;;;;;;6190667;23;20177;-92
2022/11/30 10:11:40;;;;;;;150.63;59.10;;;4.60;94.70;;;;;;6191707;23;20152;-92
2022/11/30 10:14:16;;;;;;;165.13;62.47;;;4.60;94.70;;;;;;6190539;23;20224;-91
2022/11/30 10:17:11;;;;;;;169.97;63.33;;;4.60;94.60;;;;;;6189994;23;20144;-92
2022/11/30 10:19:49;;;;;;;160.47;64.77;;;4.60;94.60;;;;;;6189757;23;20182;-90
2022/11/30 10:22:22;;;;;;;150.37;57.40;;;4.70;94.60;;;;;;6189193;23;20685;-90
2022/11/30 10:25:20;;;;;;;159.13;63.83;;;4.70;94.60;;;;;;6193882;23;20160;-91
2022/11/30 10:27:58;;;;;;;143.37;60.83;;;4.70;94.50;;;;;;6191038;23;20147;-91
2022/11/30 10:30:32;;;;;;;160.30;60.77;;;4.60;94.40;;;;;;6190787;23;20182;-91
2022/11/30 10:33:08;;;;;;;158.00;64.87;;;4.70;94.40;;;;;;6191189;23;20542;-91
2022/11/30 10:35:43;;;;;;;160.13;60.83;;;4.70;94.40;;;;;;6191320;23;20154;-91
2022/11/30 10:38:22;;;;;;;150.40;60.90;;;4.70;94.40;;;;;;6191093;23;20262;-92
2022/11/30 10:41:10;;;;;;;153.50;60.10;;;4.80;94.40;;;;;;6189990;23;20235;-92
2022/11/30 10:43:53;;;;;;;160.33;62.13;;;4.80;94.40;;;;;;6190433;23;20151;-92
2022/11/30 10:46:29;;;;;;;147.80;58.20;;;4.80;94.30;;;;;;6190489;23;20632;-91
2022/11/30 10:49:19;;;;;;;162.77;61.23;;;4.80;94.30;;;;;;6189584;23;20174;-92
2022/11/30 10:51:53;;;;;;;154.17;63.83;;;4.80;94.20;;;;;;6175332;23;20163;-92
2022/11/30 10:54:24;;;;;;;153.23;58.93;;;4.80;94.20;;;;;;6190657;23;20225;-91
2022/11/30 10:56:52;;;;;;;141.43;63.67;;;4.80;94.20;;;;;;6190747;23;20595;-91
2022/11/30 10:59:50;;;;;;;153.00;63.07;;;4.80;94.10;;;;;;6189401;23;20182;-92
2022/11/30 11:02:41;;;;;;;128.77;58.27;;;4.90;94.00;;;;;;6167533;23;20511;-91
2022/11/30 11:05:15;;;;;;;138.40;59.43;;;4.80;94.00;;;;;;6190706;23;20198;-91
2022/11/30 11:07:51;;;;;;;140.97;63.80;;;4.80;93.90;;;;;;6197131;23;20160;-93
2022/11/30 11:10:57;;;;;;;132.50;58.43;;;4.90;93.90;;;;;;6201805;23;20174;-92
2022/11/30 11:13:38;;;;;;;135.00;58.80;;;4.90;93.90;;;;;;6213567;23;20163;-92
2022/11/30 11:16:10;;;;;;;149.37;62.67;;;4.90;93.80;;;;;;6215384;23;20159;-92
2022/11/30 11:19:17;;;;;;;130.90;59.13;;;4.90;93.80;;;;;;6216362;23;20178;-92
2022/11/30 11:22:17;;;;;;;137.43;60.63;;;4.90;93.80;;;;;;6095529;23;20271;-92
2022/11/30 11:25:36;;;;;;;154.57;61.67;;;4.90;93.70;;;;;;6092061;23;20157;-92
2022/11/30 11:28:17;;;;;;;136.30;58.53;;;4.90;93.60;;;;;;6194082;23;20202;-93
2022/11/30 11:30:59;;;;;;;129.73;56.80;;;4.90;93.50;;;;;;6221474;23;20633;-91
2022/11/30 11:34:11;;;;;;;139.00;60.20;;;5.00;93.50;;;;;;6221570;23;20155;-92
2022/11/30 11:36:55;;;;;;;132.57;59.27;;;5.00;93.50;;;;;;6166476;23;20155;-93
2022/11/30 11:39:25;;;;;;;133.07;59.97;;;5.00;93.40;;;;;;6219946;23;20180;-91
2022/11/30 11:41:51;;;;;;;136.93;59.17;;;5.00;93.40;;;;;;6216371;23;20723;-91
2022/11/30 11:44:20;;;;;;;125.33;57.93;;;5.00;93.30;;;;;;6216412;23;20162;-91
2022/11/30 11:47:04;;;;;;;128.70;59.77;;;5.00;93.20;;;;;;6216830;23;20183;-91
2022/11/30 11:49:35;;;;;;;121.10;56.97;;;5.10;93.30;;;;;;6216696;23;20176;-91
2022/11/30 11:52:03;;;;;;;115.47;54.80;;;5.00;93.20;;;;;;6216642;23;20686;-91
2022/11/30 11:54:40;;;;;;;121.93;55.10;;;5.00;93.10;;;;;;6216826;23;20238;-91
2022/11/30 11:57:18;;;;;;;107.40;54.33;;;5.00;92.90;;;;;;6216581;23;20151;-91
2022/11/30 11:59:55;;;;;;;118.47;55.90;;;5.00;92.90;;;;;;6216379;23;20189;-91
2022/11/30 12:02:36;;;;;;;112.57;55.43;;;5.10;92.80;;;;;;6216706;23;20249;-91
2022/11/30 12:05:13;;;;;;;106.30;53.30;;;5.10;92.70;;;;;;6216335;23;20159;-92
2022/11/30 12:08:02;;;;;;;116.63;55.27;;;5.10;92.70;;;;;;6216125;23;20135;-91
2022/11/30 12:10:37;;;;;;;112.20;54.27;;;5.10;92.60;;;;;;6216331;23;20199;-91
2022/11/30 12:13:18;;;;;;;110.33;54.73;;;5.20;92.70;;;;;;6216411;23;20159;-91
2022/11/30 12:16:06;;;;;;;97.83;52.10;;;5.20;92.70;;;;;;6216401;23;20607;-92
2022/11/30 12:19:06;;;;;;;108.10;52.23;;;5.10;92.50;;;;;;6216024;23;20179;-91
2022/11/30 12:21:47;;;;;;;100.67;52.47;;;5.10;92.60;;;;;;6216266;23;20188;-91
2022/11/30 12:24:28;;;;;;;102.57;52.47;;;5.10;92.50;;;;;;6216097;23;20600;-91
2022/11/30 12:27:15;;;;;;;94.37;49.67;;;5.10;92.50;;;;;;6217252;23;20144;-91
2022/11/30 12:29:49;;;;;;;98.27;52.23;;;5.10;92.40;;;;;;6216231;23;20180;-91
2022/11/30 12:32:41;;;;;;;105.60;54.00;;;5.10;92.40;;;;;;6216979;23;20539;-91
2022/11/30 12:35:47;;;;;;;100.67;52.63;;;5.20;92.40;;;;;;6220647;23;20631;-90
2022/11/30 12:38:24;;;;;;;100.47;53.30;;;5.20;92.40;;;;;;6217811;23;20178;-90
2022/11/30 12:41:07;;;;;;;102.83;53.67;;;5.20;92.40;;;;;;6218546;23;20182;-88
2022/11/30 12:43:59;;;;;;;96.13;53.17;;;5.20;92.30;;;;;;6219647;23;20144;-89